Terminal Aerodrome Forecast
Issued by NWS

Home | Current Version | Previous Version | Text Only | Print | Product List | Glossary On
Versions: 1 2 3 4 5 6 7 8 9 10 11 12 13 14 15 16 17
000
FTUS42 KGSP 021120
TAFAND
TAF
KAND 021120Z 0212/0312 24005KT P6SM -SHRA SCT050 OVC120
     FM021500 25010G18KT P6SM -SHRA BKN060
      TEMPO 0217/0221 4SM TSRA BKN040CB
     FM022100 24013G22KT P6SM BKN060 PROB30 0221/0301 4SM TSRA
      BKN040CB
     FM030100 25006KT P6SM BKN040
     FM030600 23006KT P6SM BKN020=

USA.gov is the U.S. government's official web portal to all federal, state and local government web resources and services.